createdAt,value
2018-09-29T00:00:31.525Z,9.40
2018-09-29T00:02:59.567Z,9.40
2018-09-29T00:05:27.633Z,9.40
2018-09-29T00:07:56.070Z,9.40
2018-09-29T00:10:24.105Z,9.30
2018-09-29T00:12:52.161Z,9.30
2018-09-29T00:15:20.342Z,9.20
2018-09-29T00:17:48.380Z,9.20
2018-09-29T00:20:16.430Z,9.20
2018-09-29T00:22:44.493Z,9.20
2018-09-29T00:25:12.532Z,9.10
2018-09-29T00:27:40.584Z,9.10
2018-09-29T00:30:08.638Z,9.10
2018-09-29T00:32:36.681Z,9.00
2018-09-29T00:35:04.730Z,9.00
2018-09-29T00:37:32.793Z,9.00
2018-09-29T00:40:00.864Z,9.00
2018-09-29T00:42:28.928Z,8.90
2018-09-29T00:44:56.980Z,9.00
2018-09-29T00:47:25.029Z,9.00
2018-09-29T00:49:53.077Z,8.90
2018-09-29T00:52:21.141Z,9.00
2018-09-29T00:54:49.184Z,8.90
2018-09-29T00:57:17.232Z,8.90
2018-09-29T00:59:45.271Z,8.90
2018-09-29T01:02:13.325Z,8.90
2018-09-29T01:04:41.373Z,8.90
2018-09-29T01:07:09.493Z,8.90
2018-09-29T01:09:37.528Z,8.80
2018-09-29T01:12:05.612Z,8.90
2018-09-29T01:14:33.661Z,8.80
2018-09-29T01:17:01.713Z,8.80
2018-09-29T01:19:29.755Z,8.80
2018-09-29T01:21:57.808Z,8.80
2018-09-29T01:24:25.857Z,8.80
2018-09-29T01:26:53.964Z,8.80
2018-09-29T01:29:22.151Z,8.80
2018-09-29T01:31:50.191Z,8.80
2018-09-29T01:34:18.257Z,8.80
2018-09-29T01:36:46.321Z,8.80
2018-09-29T01:39:14.369Z,8.80
2018-09-29T01:41:42.472Z,8.80
2018-09-29T01:44:10.738Z,8.80
2018-09-29T01:46:38.974Z,8.80
2018-09-29T01:49:07.033Z,8.80
2018-09-29T01:51:35.228Z,8.80
2018-09-29T01:54:03.516Z,8.80
2018-09-29T01:56:31.569Z,8.80
2018-09-29T01:58:59.647Z,8.70
2018-09-29T02:01:27.700Z,8.80
2018-09-29T02:03:55.759Z,8.70
2018-09-29T02:06:23.795Z,8.70
2018-09-29T02:08:51.853Z,8.70
2018-09-29T02:11:20.103Z,8.80
2018-09-29T02:13:48.124Z,8.80
2018-09-29T02:16:16.173Z,8.80
2018-09-29T02:18:44.238Z,8.80
2018-09-29T02:21:12.289Z,8.80
2018-09-29T02:23:40.426Z,8.80
2018-09-29T02:26:08.611Z,8.80
2018-09-29T02:28:36.692Z,8.80
2018-09-29T02:31:04.688Z,8.80
2018-09-29T02:33:39.560Z,8.80
2018-09-29T02:36:07.619Z,8.80
2018-09-29T02:38:35.665Z,8.70
2018-09-29T02:41:03.713Z,8.80
2018-09-29T02:43:31.764Z,8.80
2018-09-29T02:45:59.820Z,8.80
2018-09-29T02:48:27.876Z,8.80
2018-09-29T02:50:55.930Z,8.70
2018-09-29T02:53:23.976Z,8.70
2018-09-29T02:55:52.020Z,8.70
2018-09-29T02:58:20.061Z,8.70
2018-09-29T03:00:48.377Z,8.60
2018-09-29T03:03:16.433Z,8.60
2018-09-29T03:05:44.641Z,8.50
2018-09-29T03:08:12.712Z,8.50
2018-09-29T03:10:40.740Z,8.40
2018-09-29T03:13:08.790Z,8.40
2018-09-29T03:15:36.841Z,8.40
2018-09-29T03:18:04.889Z,8.30
2018-09-29T03:20:32.941Z,8.30
2018-09-29T03:23:01.022Z,8.30
2018-09-29T03:25:29.053Z,8.30
2018-09-29T03:27:57.097Z,8.30
2018-09-29T03:30:25.144Z,8.30
2018-09-29T03:32:53.196Z,8.20
2018-09-29T03:35:21.261Z,8.20
2018-09-29T03:37:49.301Z,8.20
2018-09-29T03:40:17.362Z,8.10
2018-09-29T03:42:45.405Z,8.10
2018-09-29T03:45:13.470Z,8.10
2018-09-29T03:47:41.517Z,8.20
2018-09-29T03:50:09.639Z,8.20
2018-09-29T03:52:37.669Z,8.20
2018-09-29T03:55:06.025Z,8.20
2018-09-29T03:57:34.097Z,8.10
2018-09-29T04:00:02.134Z,8.10
2018-09-29T04:02:30.198Z,8.10
2018-09-29T04:04:58.252Z,8.10
2018-09-29T04:07:26.305Z,8.00
2018-09-29T04:09:54.361Z,8.00
2018-09-29T04:12:22.437Z,8.10
2018-09-29T04:14:50.487Z,8.10
2018-09-29T04:17:18.562Z,8.00
2018-09-29T04:19:46.604Z,8.10
2018-09-29T04:22:14.712Z,8.00
2018-09-29T04:24:42.756Z,8.00
2018-09-29T04:27:10.832Z,8.00
2018-09-29T04:29:38.872Z,8.00
2018-09-29T04:32:06.945Z,8.00
2018-09-29T04:34:34.992Z,8.00
2018-09-29T04:37:03.049Z,8.00
2018-09-29T04:39:31.096Z,8.00
2018-09-29T04:41:59.156Z,8.00
2018-09-29T04:44:27.194Z,8.00
2018-09-29T04:46:55.245Z,8.00
2018-09-29T04:49:23.280Z,8.00
2018-09-29T04:51:51.349Z,8.00
2018-09-29T04:54:19.396Z,8.00
2018-09-29T04:56:47.446Z,8.00
2018-09-29T04:59:15.602Z,8.00
2018-09-29T05:01:43.649Z,8.00
2018-09-29T05:04:11.689Z,7.90
2018-09-29T05:06:39.780Z,7.90
2018-09-29T05:09:08.465Z,7.90
2018-09-29T05:11:36.544Z,7.80
2018-09-29T05:14:04.661Z,7.80
2018-09-29T05:16:32.668Z,7.80
2018-09-29T05:19:00.792Z,7.80
2018-09-29T05:21:28.924Z,7.70
2018-09-29T05:23:56.982Z,7.70
2018-09-29T05:26:25.033Z,7.70
2018-09-29T05:28:53.070Z,7.60
2018-09-29T05:31:21.125Z,7.60
2018-09-29T05:33:49.276Z,7.70
2018-09-29T05:36:17.345Z,7.70
2018-09-29T05:38:45.450Z,7.70
2018-09-29T05:41:13.460Z,7.70
2018-09-29T05:43:41.537Z,7.80
2018-09-29T05:46:09.569Z,7.70
2018-09-29T05:48:37.621Z,7.70
2018-09-29T05:51:05.664Z,7.80
2018-09-29T05:53:33.726Z,7.80
2018-09-29T05:56:01.773Z,7.90
2018-09-29T05:58:29.804Z,7.90
2018-09-29T06:00:57.852Z,8.00
2018-09-29T06:03:25.900Z,8.00
2018-09-29T06:05:54.037Z,8.10
2018-09-29T06:08:22.038Z,8.20
2018-09-29T06:10:50.085Z,8.30
2018-09-29T06:13:18.226Z,8.40
2018-09-29T06:15:46.180Z,8.50
2018-09-29T06:18:14.237Z,8.60
2018-09-29T06:20:42.276Z,8.80
2018-09-29T06:23:10.329Z,8.90
2018-09-29T06:25:38.377Z,9.00
2018-09-29T06:28:06.652Z,9.10
2018-09-29T06:30:34.677Z,9.30
2018-09-29T06:33:02.994Z,9.40
2018-09-29T06:35:31.032Z,9.50
2018-09-29T06:37:59.093Z,9.60
2018-09-29T06:40:27.177Z,9.70
2018-09-29T06:42:55.204Z,9.70
2018-09-29T06:45:23.260Z,9.80
2018-09-29T06:47:51.369Z,9.80
2018-09-29T06:50:19.352Z,9.80
2018-09-29T06:52:47.426Z,10.00
2018-09-29T06:55:15.481Z,10.10
2018-09-29T06:57:43.542Z,10.10
2018-09-29T07:00:11.594Z,10.30
2018-09-29T07:02:39.666Z,10.40
2018-09-29T07:05:07.710Z,10.60
2018-09-29T07:07:35.764Z,10.80
2018-09-29T07:10:03.820Z,11.10
2018-09-29T07:12:31.873Z,11.40
2018-09-29T07:15:00.057Z,11.70
2018-09-29T07:17:28.118Z,11.90
2018-09-29T07:19:56.167Z,12.20
2018-09-29T07:22:24.229Z,12.60
2018-09-29T07:24:52.289Z,13.00
2018-09-29T07:27:20.337Z,13.40
2018-09-29T07:29:48.389Z,13.80
2018-09-29T07:32:16.441Z,14.60
2018-09-29T07:34:44.489Z,15.90
2018-09-29T07:37:12.553Z,17.10
2018-09-29T07:39:40.609Z,17.80
2018-09-29T07:42:09.015Z,18.20
2018-09-29T07:44:37.056Z,18.90
2018-09-29T07:47:05.318Z,19.80
2018-09-29T07:49:33.369Z,21.20
2018-09-29T07:52:01.540Z,22.50
2018-09-29T07:54:29.593Z,23.80
2018-09-29T07:56:57.702Z,24.70
2018-09-29T07:59:26.321Z,25.50
2018-09-29T08:01:54.399Z,25.80
2018-09-29T08:04:22.457Z,26.90
2018-09-29T08:06:50.507Z,28.50
2018-09-29T08:09:18.568Z,30.00
2018-09-29T08:11:46.649Z,31.20
2018-09-29T08:14:14.714Z,32.30
2018-09-29T08:16:42.794Z,33.00
2018-09-29T08:19:10.961Z,32.70
2018-09-29T08:21:39.067Z,32.80
2018-09-29T08:24:07.302Z,33.40
2018-09-29T08:26:35.322Z,33.60
2018-09-29T08:29:03.409Z,33.60
2018-09-29T08:31:31.489Z,34.00
2018-09-29T08:33:59.597Z,34.50
2018-09-29T08:36:27.690Z,34.70
2018-09-29T08:38:55.783Z,34.60
2018-09-29T08:41:23.845Z,35.20
2018-09-29T08:43:51.929Z,35.10
2018-09-29T08:46:20.020Z,34.10
2018-09-29T08:48:54.867Z,33.50
2018-09-29T08:51:22.941Z,33.80
2018-09-29T08:53:57.528Z,33.30
2018-09-29T08:56:25.591Z,33.50
2018-09-29T08:58:53.693Z,34.50
2018-09-29T09:01:21.784Z,34.90
2018-09-29T09:03:49.956Z,34.40
2018-09-29T09:06:17.987Z,34.30
2018-09-29T09:08:46.085Z,35.00
2018-09-29T09:11:14.187Z,35.70
2018-09-29T09:13:42.269Z,35.90
2018-09-29T09:16:13.742Z,36.50
2018-09-29T09:18:41.837Z,36.90
2018-09-29T09:21:09.913Z,36.70
2018-09-29T09:23:38.029Z,37.30
2018-09-29T09:26:06.094Z,38.10
2018-09-29T09:28:34.260Z,38.50
2018-09-29T09:31:02.333Z,38.30
2018-09-29T09:33:30.412Z,38.30
2018-09-29T09:35:58.501Z,38.90
2018-09-29T09:38:26.574Z,39.30
2018-09-29T09:40:54.704Z,39.30
2018-09-29T09:43:22.783Z,40.10
2018-09-29T09:45:50.837Z,40.40
2018-09-29T09:48:18.897Z,41.00
2018-09-29T09:50:46.954Z,41.50
2018-09-29T09:53:15.017Z,41.30
2018-09-29T09:55:43.304Z,39.60
2018-09-29T09:58:11.383Z,39.60
2018-09-29T10:00:44.882Z,39.90
2018-09-29T10:03:18.285Z,40.70
2018-09-29T10:05:46.361Z,41.00
2018-09-29T10:08:14.440Z,41.20
2018-09-29T10:10:42.504Z,41.40
2018-09-29T10:13:10.556Z,39.30
2018-09-29T10:15:38.604Z,39.70
2018-09-29T10:18:06.665Z,39.80
2018-09-29T10:20:34.724Z,40.40
2018-09-29T10:23:02.777Z,40.50
2018-09-29T10:25:30.839Z,40.70
2018-09-29T10:27:58.889Z,40.80
2018-09-29T10:30:27.021Z,40.20
2018-09-29T10:32:55.087Z,39.30
2018-09-29T10:35:23.203Z,38.90
2018-09-29T10:37:51.342Z,39.30
2018-09-29T10:40:19.353Z,39.50
2018-09-29T10:42:47.446Z,39.40
2018-09-29T10:45:15.495Z,39.80
2018-09-29T10:47:43.622Z,40.40
2018-09-29T10:50:11.818Z,39.30
2018-09-29T10:52:40.418Z,38.50
2018-09-29T10:55:08.521Z,39.10
2018-09-29T10:57:36.605Z,39.70
2018-09-29T11:00:04.904Z,40.30
2018-09-29T11:02:32.988Z,40.80
2018-09-29T11:05:01.113Z,41.60
2018-09-29T11:07:29.169Z,42.50
2018-09-29T11:09:57.508Z,41.70
2018-09-29T11:12:25.597Z,40.90
2018-09-29T11:14:53.692Z,41.10
2018-09-29T11:17:21.773Z,41.00
2018-09-29T11:19:49.969Z,40.50
2018-09-29T11:22:18.025Z,40.70
2018-09-29T11:24:46.177Z,40.20
2018-09-29T11:27:14.249Z,39.20
2018-09-29T11:29:42.513Z,39.60
2018-09-29T11:32:10.630Z,39.90
2018-09-29T11:34:38.692Z,40.30
2018-09-29T11:37:06.777Z,40.70
2018-09-29T11:39:34.860Z,39.80
2018-09-29T11:42:03.141Z,39.90
2018-09-29T11:44:31.204Z,40.10
2018-09-29T11:46:59.273Z,40.50
2018-09-29T11:49:27.345Z,40.70
2018-09-29T11:51:55.432Z,40.10
2018-09-29T11:54:23.508Z,40.00
2018-09-29T11:56:51.580Z,40.20
2018-09-29T11:59:19.626Z,40.80
2018-09-29T12:01:47.737Z,41.30
2018-09-29T12:04:15.753Z,40.60
2018-09-29T12:06:43.906Z,40.00
2018-09-29T12:09:12.977Z,40.10
2018-09-29T12:11:42.306Z,40.30
2018-09-29T12:14:10.413Z,40.60
2018-09-29T12:16:38.528Z,41.00
2018-09-29T12:19:06.586Z,41.10
2018-09-29T12:21:34.652Z,41.50
2018-09-29T12:24:02.713Z,41.60
2018-09-29T12:26:30.789Z,41.20
2018-09-29T12:28:58.835Z,40.50
2018-09-29T12:31:26.961Z,38.90
2018-09-29T12:33:54.981Z,36.90
2018-09-29T12:36:23.061Z,35.40
2018-09-29T12:38:51.133Z,35.20
2018-09-29T12:41:19.204Z,35.60
2018-09-29T12:43:47.283Z,35.60
2018-09-29T12:46:15.337Z,34.80
2018-09-29T12:48:43.437Z,34.90
2018-09-29T12:51:11.518Z,34.50
2018-09-29T12:53:39.576Z,35.00
2018-09-29T12:56:07.652Z,35.80
2018-09-29T12:58:35.711Z,36.40
2018-09-29T13:01:03.809Z,36.60
2018-09-29T13:03:31.895Z,36.50
2018-09-29T13:06:06.745Z,36.90
2018-09-29T13:08:34.809Z,37.20
2018-09-29T13:11:02.888Z,37.50
2018-09-29T13:13:30.961Z,37.40
2018-09-29T13:15:59.016Z,37.50
2018-09-29T13:18:27.086Z,37.70
2018-09-29T13:20:55.140Z,37.40
2018-09-29T13:23:23.207Z,36.60
2018-09-29T13:25:51.256Z,35.30
2018-09-29T13:28:19.320Z,34.20
2018-09-29T13:30:47.376Z,33.80
2018-09-29T13:33:15.445Z,32.60
2018-09-29T13:35:43.517Z,31.90
2018-09-29T13:38:11.580Z,31.30
2018-09-29T13:40:39.628Z,30.00
2018-09-29T13:43:07.675Z,28.90
2018-09-29T13:45:35.724Z,27.90
2018-09-29T13:48:03.785Z,27.20
2018-09-29T13:50:31.836Z,26.90
2018-09-29T13:52:59.892Z,26.70
2018-09-29T13:55:28.967Z,26.30
2018-09-29T13:57:57.045Z,26.00
2018-09-29T14:00:25.092Z,25.60
2018-09-29T14:02:53.144Z,24.70
2018-09-29T14:05:21.197Z,24.00
2018-09-29T14:07:49.260Z,23.40
2018-09-29T14:10:17.320Z,23.00
2018-09-29T14:12:45.364Z,22.90
2018-09-29T14:15:13.413Z,23.10
2018-09-29T14:17:41.468Z,23.20
2018-09-29T14:20:09.533Z,23.30
2018-09-29T14:22:37.588Z,23.40
2018-09-29T14:25:06.001Z,23.50
2018-09-29T14:27:34.056Z,23.50
2018-09-29T14:30:02.133Z,23.00
2018-09-29T14:32:30.181Z,22.70
2018-09-29T14:34:58.241Z,22.50
2018-09-29T14:37:26.310Z,22.40
2018-09-29T14:39:54.379Z,22.40
2018-09-29T14:42:22.452Z,22.50
2018-09-29T14:44:50.493Z,22.60
2018-09-29T14:47:18.553Z,22.60
2018-09-29T14:49:46.609Z,22.00
2018-09-29T14:52:14.699Z,21.90
2018-09-29T14:54:42.717Z,21.90
2018-09-29T14:57:10.777Z,21.90
2018-09-29T14:59:38.826Z,21.70
2018-09-29T15:02:06.917Z,21.50
2018-09-29T15:04:34.957Z,21.20
2018-09-29T15:07:03.058Z,20.80
2018-09-29T15:09:31.120Z,20.70
2018-09-29T15:11:59.179Z,20.70
2018-09-29T15:14:27.230Z,20.90
2018-09-29T15:16:55.296Z,21.00
2018-09-29T15:19:23.461Z,21.10
2018-09-29T15:21:51.736Z,21.10
2018-09-29T15:24:20.409Z,21.20
2018-09-29T15:26:48.490Z,21.20
2018-09-29T15:29:16.544Z,21.10
2018-09-29T15:31:44.597Z,20.80
2018-09-29T15:34:12.656Z,20.70
2018-09-29T15:36:40.729Z,20.30
2018-09-29T15:39:10.505Z,20.00
2018-09-29T15:41:38.788Z,19.80
2018-09-29T15:44:07.096Z,19.60
2018-09-29T15:46:35.144Z,19.50
2018-09-29T15:49:03.561Z,19.30
2018-09-29T15:51:31.610Z,19.20
2018-09-29T15:53:59.835Z,19.00
2018-09-29T15:56:28.034Z,18.90
2018-09-29T15:58:56.082Z,18.70
2018-09-29T16:01:24.124Z,18.70
2018-09-29T16:03:52.189Z,18.60
2018-09-29T16:06:20.247Z,18.40
2018-09-29T16:08:48.304Z,18.30
2018-09-29T16:11:16.384Z,18.20
2018-09-29T16:13:44.452Z,18.20
2018-09-29T16:16:12.524Z,18.20
2018-09-29T16:18:40.580Z,18.20
2018-09-29T16:21:08.657Z,18.20
2018-09-29T16:23:36.725Z,18.20
2018-09-29T16:26:04.803Z,18.10
2018-09-29T16:28:32.861Z,18.10
2018-09-29T16:31:00.927Z,18.10
2018-09-29T16:33:29.060Z,17.90
2018-09-29T16:35:57.120Z,17.80
2018-09-29T16:38:25.242Z,17.60
2018-09-29T16:40:53.232Z,17.50
2018-09-29T16:43:21.320Z,17.50
2018-09-29T16:45:49.335Z,17.40
2018-09-29T16:48:17.390Z,17.30
2018-09-29T16:50:45.451Z,17.20
2018-09-29T16:53:13.504Z,17.00
2018-09-29T16:55:41.646Z,16.90
2018-09-29T16:58:09.700Z,16.80
2018-09-29T17:00:37.748Z,16.70
2018-09-29T17:03:05.845Z,16.60
2018-09-29T17:05:33.883Z,16.40
2018-09-29T17:08:01.949Z,16.30
2018-09-29T17:10:30.011Z,16.20
2018-09-29T17:12:58.249Z,16.00
2018-09-29T17:15:26.485Z,15.90
2018-09-29T17:17:54.520Z,15.70
2018-09-29T17:20:22.566Z,15.50
2018-09-29T17:22:50.612Z,15.40
2018-09-29T17:25:18.670Z,15.30
2018-09-29T17:27:46.735Z,15.10
2018-09-29T17:30:14.812Z,14.90
2018-09-29T17:32:42.883Z,14.80
2018-09-29T17:35:10.941Z,14.70
2018-09-29T17:37:38.996Z,14.50
2018-09-29T17:40:07.065Z,14.40
2018-09-29T17:42:35.348Z,14.30
2018-09-29T17:45:03.406Z,14.10
2018-09-29T17:47:31.628Z,14.00
2018-09-29T17:49:59.687Z,13.90
2018-09-29T17:52:28.771Z,13.70
2018-09-29T17:54:56.830Z,13.60
2018-09-29T17:57:24.891Z,13.50
2018-09-29T18:02:27.457Z,13.20
2018-09-29T18:04:55.523Z,13.20
2018-09-29T18:07:23.573Z,13.00
2018-09-29T18:09:51.621Z,12.90
2018-09-29T18:12:19.717Z,12.90
2018-09-29T18:14:47.805Z,12.80
2018-09-29T18:17:15.868Z,12.70
2018-09-29T18:19:43.933Z,12.60
2018-09-29T18:22:11.984Z,12.50
2018-09-29T18:24:40.032Z,12.40
2018-09-29T18:27:08.092Z,12.30
2018-09-29T18:29:36.152Z,12.30
2018-09-29T18:32:04.204Z,12.20
2018-09-29T18:34:32.259Z,12.10
2018-09-29T18:37:00.348Z,12.00
2018-09-29T18:39:28.409Z,11.90
2018-09-29T18:41:56.463Z,11.80
2018-09-29T18:44:24.515Z,11.80
2018-09-29T18:46:52.560Z,11.70
2018-09-29T18:49:20.612Z,11.60
2018-09-29T18:51:48.689Z,11.50
2018-09-29T18:54:16.716Z,11.40
2018-09-29T18:56:44.768Z,11.30
2018-09-29T18:59:12.841Z,11.20
2018-09-29T19:01:40.909Z,11.10
2018-09-29T19:04:08.952Z,11.00
2018-09-29T19:06:37.006Z,10.90
2018-09-29T19:09:07.811Z,10.80
2018-09-29T19:11:35.895Z,10.70
2018-09-29T19:14:03.946Z,10.60
2018-09-29T19:16:31.996Z,10.50
2018-09-29T19:19:00.042Z,10.40
2018-09-29T19:21:28.101Z,10.40
2018-09-29T19:23:56.166Z,10.30
2018-09-29T19:26:24.232Z,10.20
2018-09-29T19:28:52.293Z,10.20
2018-09-29T19:31:20.364Z,10.10
2018-09-29T19:33:48.530Z,10.00
2018-09-29T19:36:16.506Z,9.90
2018-09-29T19:38:44.558Z,9.90
2018-09-29T19:41:12.596Z,9.80
2018-09-29T19:43:40.637Z,9.70
2018-09-29T19:46:08.715Z,9.70
2018-09-29T19:48:36.753Z,9.70
2018-09-29T19:51:04.824Z,9.60
2018-09-29T19:53:32.860Z,9.60
2018-09-29T19:56:00.928Z,9.50
2018-09-29T19:58:28.986Z,9.50
2018-09-29T20:00:57.049Z,9.40
2018-09-29T20:03:25.113Z,9.40
2018-09-29T20:05:53.173Z,9.40
2018-09-29T20:08:21.228Z,9.30
2018-09-29T20:10:49.296Z,9.20
2018-09-29T20:13:17.432Z,9.10
2018-09-29T20:15:45.620Z,9.00
2018-09-29T20:18:13.684Z,9.00
2018-09-29T20:20:41.729Z,8.90
2018-09-29T20:23:09.784Z,8.90
2018-09-29T20:25:37.833Z,8.80
2018-09-29T20:28:05.923Z,8.80
2018-09-29T20:30:34.017Z,8.70
2018-09-29T20:33:02.034Z,8.70
2018-09-29T20:35:30.098Z,8.70
2018-09-29T20:37:58.175Z,8.70
2018-09-29T20:40:26.221Z,8.60
2018-09-29T20:42:54.293Z,8.60
2018-09-29T20:45:22.348Z,8.50
2018-09-29T20:47:50.399Z,8.50
2018-09-29T20:50:18.456Z,8.40
2018-09-29T20:52:46.520Z,8.40
2018-09-29T20:55:14.560Z,8.30
2018-09-29T20:57:42.641Z,8.30
2018-09-29T21:00:10.682Z,8.30
2018-09-29T21:02:38.737Z,8.30
2018-09-29T21:05:06.790Z,8.20
2018-09-29T21:07:34.849Z,8.20
2018-09-29T21:10:02.900Z,8.20
2018-09-29T21:12:30.956Z,8.10
2018-09-29T21:14:59.011Z,8.00
2018-09-29T21:17:27.067Z,8.00
2018-09-29T21:19:55.116Z,8.00
2018-09-29T21:22:23.179Z,7.90
2018-09-29T21:24:51.224Z,7.90
2018-09-29T21:27:19.260Z,7.90
2018-09-29T21:29:47.309Z,7.90
2018-09-29T21:32:15.354Z,7.90
2018-09-29T21:34:43.405Z,7.90
2018-09-29T21:37:11.461Z,7.80
2018-09-29T21:39:39.508Z,7.80
2018-09-29T21:42:07.561Z,7.80
2018-09-29T21:44:35.608Z,7.70
2018-09-29T21:47:03.657Z,7.60
2018-09-29T21:49:31.728Z,7.60
2018-09-29T21:51:59.772Z,7.50
2018-09-29T21:54:28.710Z,7.50
2018-09-29T21:56:56.749Z,7.50
2018-09-29T21:59:24.820Z,7.40
2018-09-29T22:01:52.856Z,7.40
2018-09-29T22:04:20.929Z,7.40
2018-09-29T22:06:48.960Z,7.40
2018-09-29T22:09:21.004Z,7.30
2018-09-29T22:11:49.223Z,7.30
2018-09-29T22:14:17.289Z,7.30
2018-09-29T22:16:45.333Z,7.20
2018-09-29T22:19:13.548Z,7.20
2018-09-29T22:21:41.605Z,7.20
2018-09-29T22:24:09.924Z,7.10
2018-09-29T22:26:38.005Z,7.10
2018-09-29T22:29:06.324Z,7.10
2018-09-29T22:31:34.391Z,7.10
2018-09-29T22:34:02.432Z,7.10
2018-09-29T22:36:30.509Z,7.10
2018-09-29T22:38:58.565Z,7.10
2018-09-29T22:41:26.634Z,7.20
2018-09-29T22:43:54.676Z,7.20
2018-09-29T22:46:22.727Z,7.30
2018-09-29T22:48:51.067Z,7.40
2018-09-29T22:51:19.124Z,7.50
2018-09-29T22:53:47.168Z,7.50
2018-09-29T22:56:15.216Z,7.60
2018-09-29T22:58:43.260Z,7.60
2018-09-29T23:01:11.325Z,7.60
2018-09-29T23:03:39.378Z,7.50
2018-09-29T23:06:07.447Z,7.50
2018-09-29T23:08:35.566Z,7.50
2018-09-29T23:11:03.574Z,7.50
2018-09-29T23:13:31.672Z,7.40
2018-09-29T23:15:59.727Z,7.40
2018-09-29T23:18:27.779Z,7.40
2018-09-29T23:20:55.844Z,7.40
2018-09-29T23:23:23.912Z,7.30
2018-09-29T23:25:51.964Z,7.20
2018-09-29T23:28:20.016Z,7.20
2018-09-29T23:30:48.100Z,7.20
2018-09-29T23:33:16.157Z,7.10
2018-09-29T23:35:44.228Z,7.10
2018-09-29T23:38:12.276Z,7.10
2018-09-29T23:40:40.334Z,7.00
2018-09-29T23:43:08.384Z,7.00
2018-09-29T23:45:36.472Z,7.00
2018-09-29T23:48:04.521Z,6.90
2018-09-29T23:50:32.565Z,6.90
2018-09-29T23:53:00.614Z,6.90
2018-09-29T23:55:28.664Z,6.90
2018-09-29T23:57:56.722Z,6.90
